createdAt,value
2022-09-30T00:00:26.049Z,65.62
2022-09-30T00:03:14.383Z,65.39
2022-09-30T00:05:42.165Z,64.98
2022-09-30T00:08:10.128Z,64.38
2022-09-30T00:10:37.781Z,63.42
2022-09-30T00:13:05.518Z,62.83
2022-09-30T00:15:33.264Z,63.19
2022-09-30T00:18:00.957Z,64.23
2022-09-30T00:20:28.853Z,65.23
2022-09-30T00:22:57.145Z,64.64
2022-09-30T00:25:24.952Z,64.61
2022-09-30T00:27:52.584Z,65.49
2022-09-30T00:30:20.220Z,66.43
2022-09-30T00:32:48.168Z,65.99
2022-09-30T00:35:20.446Z,67.29
2022-09-30T00:37:50.209Z,67.03
2022-09-30T00:40:20.273Z,66.61
2022-09-30T00:42:48.051Z,66.35
2022-09-30T00:45:17.999Z,65.96
2022-09-30T00:47:55.303Z,65.60
2022-09-30T00:50:46.056Z,65.53
2022-09-30T00:53:24.912Z,64.55
2022-09-30T00:56:20.709Z,64.12
2022-09-30T00:58:59.812Z,64.52
2022-09-30T01:01:27.964Z,64.20
2022-09-30T01:04:00.602Z,64.86
2022-09-30T01:06:28.921Z,65.18
2022-09-30T01:08:58.558Z,65.51
2022-09-30T01:11:27.832Z,65.85
2022-09-30T01:14:17.405Z,65.89
2022-09-30T01:17:16.574Z,65.01
2022-09-30T01:20:09.196Z,64.62
2022-09-30T01:22:42.191Z,64.22
2022-09-30T01:25:38.356Z,65.71
2022-09-30T01:28:30.180Z,66.87
2022-09-30T01:31:02.197Z,67.76
2022-09-30T01:33:42.130Z,67.38
2022-09-30T01:36:28.542Z,66.02
2022-09-30T01:38:59.076Z,66.62
2022-09-30T01:41:54.527Z,66.42
2022-09-30T01:44:32.053Z,65.56
2022-09-30T01:47:12.008Z,66.36
2022-09-30T01:49:47.535Z,66.59
2022-09-30T01:52:30.461Z,67.62
2022-09-30T01:55:08.143Z,67.26
2022-09-30T01:57:45.464Z,69.26
2022-09-30T02:00:13.652Z,70.07
2022-09-30T02:02:49.161Z,69.68
2022-09-30T02:05:25.047Z,69.11
2022-09-30T02:08:01.246Z,69.31
2022-09-30T02:10:35.672Z,69.00
2022-09-30T02:13:09.579Z,68.73
2022-09-30T02:15:41.674Z,68.84
2022-09-30T02:18:20.366Z,68.64
2022-09-30T02:20:52.695Z,68.20
2022-09-30T02:23:25.934Z,66.85
2022-09-30T02:26:07.203Z,67.01
2022-09-30T02:28:39.526Z,66.37
2022-09-30T02:31:08.836Z,66.95
2022-09-30T02:34:18.856Z,66.94
2022-09-30T02:36:46.443Z,67.13
2022-09-30T02:39:21.524Z,66.82
2022-09-30T02:41:53.246Z,66.84
2022-09-30T02:44:21.103Z,66.29
2022-09-30T02:46:48.886Z,65.84
2022-09-30T02:49:29.443Z,66.01
2022-09-30T02:52:15.847Z,66.33
2022-09-30T02:54:55.750Z,67.36
2022-09-30T02:57:55.822Z,67.03
2022-09-30T03:00:24.215Z,66.62
2022-09-30T03:02:56.446Z,66.71
2022-09-30T03:05:24.096Z,66.66
2022-09-30T03:07:52.077Z,67.20
2022-09-30T03:10:20.117Z,67.13
2022-09-30T03:13:15.985Z,66.83
2022-09-30T03:15:53.575Z,66.51
2022-09-30T03:18:58.694Z,66.28
2022-09-30T03:21:58.827Z,66.01
2022-09-30T03:24:49.886Z,66.27
2022-09-30T03:27:36.013Z,66.12
2022-09-30T03:30:09.923Z,65.73
2022-09-30T03:32:37.647Z,65.24
2022-09-30T03:35:31.063Z,65.29
2022-09-30T03:38:02.523Z,65.33
2022-09-30T03:40:59.968Z,65.31
2022-09-30T03:43:31.650Z,65.25
2022-09-30T03:46:08.827Z,65.29
2022-09-30T03:48:38.766Z,65.35
2022-09-30T03:51:06.312Z,65.41
2022-09-30T03:53:41.438Z,65.41
2022-09-30T03:56:09.353Z,65.49
2022-09-30T03:58:42.269Z,65.40
2022-09-30T04:01:20.060Z,65.35
2022-09-30T04:03:52.442Z,65.21
2022-09-30T04:06:22.748Z,65.08
2022-09-30T04:08:50.829Z,65.17
2022-09-30T04:11:18.669Z,65.06
2022-09-30T04:13:46.461Z,64.59
2022-09-30T04:16:14.272Z,64.31
2022-09-30T04:18:42.423Z,65.02
2022-09-30T04:21:12.738Z,65.54
2022-09-30T04:23:41.969Z,65.70
2022-09-30T04:26:13.163Z,65.53
2022-09-30T04:28:41.247Z,65.52
2022-09-30T04:31:11.929Z,65.57
2022-09-30T04:33:40.403Z,65.46
2022-09-30T04:36:08.158Z,65.39
2022-09-30T04:38:35.910Z,65.14
2022-09-30T04:41:06.843Z,65.02
2022-09-30T04:43:34.806Z,65.07
2022-09-30T04:46:02.853Z,65.26
2022-09-30T04:48:32.454Z,64.88
2022-09-30T04:51:00.928Z,64.66
2022-09-30T04:53:29.300Z,64.72
2022-09-30T04:56:01.184Z,64.23
2022-09-30T04:58:33.368Z,64.09
2022-09-30T05:01:03.875Z,65.11
2022-09-30T05:03:31.818Z,65.83
2022-09-30T05:05:59.906Z,66.25
2022-09-30T05:08:27.758Z,67.08
2022-09-30T05:10:57.782Z,67.93
2022-09-30T05:13:31.845Z,68.20
2022-09-30T05:16:00.334Z,68.45
2022-09-30T05:18:29.153Z,68.43
2022-09-30T05:20:57.737Z,68.28
2022-09-30T05:23:27.127Z,68.12
2022-09-30T05:25:56.031Z,67.67
2022-09-30T05:28:24.658Z,67.50
2022-09-30T05:31:03.544Z,66.60
2022-09-30T05:33:32.027Z,66.40
2022-09-30T05:36:04.937Z,66.06
2022-09-30T05:38:33.767Z,64.95
2022-09-30T05:41:13.104Z,65.00
2022-09-30T05:43:42.767Z,65.62
2022-09-30T05:46:10.573Z,66.25
2022-09-30T05:48:38.255Z,66.38
2022-09-30T05:51:06.451Z,66.37
2022-09-30T05:53:38.677Z,66.03
2022-09-30T05:56:07.733Z,66.04
2022-09-30T05:58:36.475Z,66.07
2022-09-30T06:01:12.801Z,65.50
2022-09-30T06:03:43.514Z,65.38
2022-09-30T06:06:11.696Z,64.99
2022-09-30T06:08:40.425Z,64.88
2022-09-30T06:11:11.938Z,64.81
2022-09-30T06:13:41.374Z,65.04
2022-09-30T06:16:10.572Z,64.81
2022-09-30T06:18:41.247Z,64.77
2022-09-30T06:21:12.265Z,64.38
2022-09-30T06:23:40.514Z,64.49
2022-09-30T06:26:11.728Z,64.00
2022-09-30T06:28:40.160Z,63.58
2022-09-30T06:31:08.573Z,63.60
2022-09-30T06:33:36.410Z,63.59
2022-09-30T06:36:04.798Z,63.91
2022-09-30T06:38:34.208Z,63.95
2022-09-30T06:41:01.937Z,64.51
2022-09-30T06:43:29.798Z,65.32
2022-09-30T06:46:10.654Z,65.90
2022-09-30T06:48:41.676Z,66.10
2022-09-30T06:51:12.365Z,65.71
2022-09-30T06:53:40.308Z,65.38
2022-09-30T06:56:08.220Z,64.65
2022-09-30T06:58:36.230Z,64.36
2022-09-30T07:01:06.435Z,63.50
2022-09-30T07:03:36.136Z,63.30
2022-09-30T07:06:04.542Z,63.03
2022-09-30T07:08:34.257Z,63.07
2022-09-30T07:11:04.437Z,62.74
2022-09-30T07:13:33.215Z,62.69
2022-09-30T07:16:01.645Z,62.35
2022-09-30T07:18:29.502Z,62.16
2022-09-30T07:20:57.328Z,61.15
2022-09-30T07:23:27.212Z,60.58
2022-09-30T07:26:01.082Z,59.18
2022-09-30T07:28:33.129Z,57.52
2022-09-30T07:31:31.205Z,58.41
2022-09-30T07:33:56.739Z,61.86
2022-09-30T07:36:33.057Z,64.20
2022-09-30T07:39:07.437Z,62.91
2022-09-30T07:41:38.917Z,61.87
2022-09-30T07:44:14.380Z,61.36
2022-09-30T07:46:43.953Z,62.53
2022-09-30T07:49:24.420Z,62.53
2022-09-30T07:51:55.591Z,62.71
2022-09-30T07:54:26.557Z,62.63
2022-09-30T07:57:09.628Z,62.37
2022-09-30T07:59:40.931Z,62.37
2022-09-30T08:02:16.225Z,61.79
2022-09-30T08:04:44.945Z,61.58
2022-09-30T08:07:14.478Z,59.02
2022-09-30T08:09:42.378Z,61.35
2022-09-30T08:12:10.233Z,62.33
2022-09-30T08:14:38.029Z,62.41
2022-09-30T08:17:06.318Z,60.30
2022-09-30T08:19:35.341Z,61.17
2022-09-30T08:24:36.082Z,63.03
2022-09-30T08:27:03.971Z,61.85
2022-09-30T08:32:21.827Z,58.56
2022-09-30T08:34:49.817Z,62.07
2022-09-30T08:37:18.427Z,63.37
2022-09-30T08:39:48.466Z,62.82
2022-09-30T08:42:37.452Z,62.21
2022-09-30T08:45:18.906Z,62.11
2022-09-30T08:48:28.867Z,61.56
2022-09-30T08:51:10.195Z,61.22
2022-09-30T08:53:41.838Z,61.06
2022-09-30T08:56:23.771Z,60.00
2022-09-30T08:58:57.007Z,57.85
2022-09-30T09:01:40.734Z,56.94
2022-09-30T09:04:08.824Z,57.89
2022-09-30T09:06:45.252Z,62.84
2022-09-30T09:09:38.979Z,62.50
